sensor_id;sensor_type;location;lat;lon;timestamp;P1;durP1;ratioP1;P2;durP2;ratioP2
4636;SDS011;2331;48.806;9.140;2023-07-20T00:02:05;4.33;;;2.07;;
4636;SDS011;2331;48.806;9.140;2023-07-20T00:04:34;3.30;;;1.90;;
4636;SDS011;2331;48.806;9.140;2023-07-20T00:07:01;3.40;;;2.07;;
4636;SDS011;2331;48.806;9.140;2023-07-20T00:09:28;3.83;;;1.93;;
4636;SDS011;2331;48.806;9.140;2023-07-20T00:11:54;4.87;;;2.27;;
4636;SDS011;2331;48.806;9.140;2023-07-20T00:14:21;4.20;;;1.90;;
4636;SDS011;2331;48.806;9.140;2023-07-20T00:16:50;5.83;;;2.10;;
4636;SDS011;2331;48.806;9.140;2023-07-20T00:19:20;6.60;;;2.17;;
4636;SDS011;2331;48.806;9.140;2023-07-20T00:21:49;4.50;;;2.13;;
4636;SDS011;2331;48.806;9.140;2023-07-20T00:24:16;3.90;;;2.10;;
4636;SDS011;2331;48.806;9.140;2023-07-20T00:26:43;3.43;;;1.87;;
4636;SDS011;2331;48.806;9.140;2023-07-20T00:29:09;3.40;;;1.90;;
4636;SDS011;2331;48.806;9.140;2023-07-20T00:31:36;4.47;;;2.07;;
4636;SDS011;2331;48.806;9.140;2023-07-20T00:34:03;3.27;;;1.83;;
4636;SDS011;2331;48.806;9.140;2023-07-20T00:36:30;4.60;;;2.00;;
4636;SDS011;2331;48.806;9.140;2023-07-20T00:38:58;4.17;;;2.10;;
4636;SDS011;2331;48.806;9.140;2023-07-20T00:41:25;5.60;;;2.30;;
4636;SDS011;2331;48.806;9.140;2023-07-20T00:43:54;3.40;;;1.80;;
4636;SDS011;2331;48.806;9.140;2023-07-20T00:46:21;6.47;;;2.17;;
4636;SDS011;2331;48.806;9.140;2023-07-20T00:48:55;5.27;;;2.13;;
4636;SDS011;2331;48.806;9.140;2023-07-20T00:51:22;4.97;;;2.10;;
4636;SDS011;2331;48.806;9.140;2023-07-20T00:53:51;3.90;;;2.10;;
4636;SDS011;2331;48.806;9.140;2023-07-20T00:56:20;9.40;;;2.10;;
4636;SDS011;2331;48.806;9.140;2023-07-20T00:58:47;8.83;;;2.00;;
4636;SDS011;2331;48.806;9.140;2023-07-20T01:01:14;4.17;;;2.13;;
4636;SDS011;2331;48.806;9.140;2023-07-20T01:03:41;4.20;;;2.20;;
4636;SDS011;2331;48.806;9.140;2023-07-20T01:06:10;4.23;;;2.00;;
4636;SDS011;2331;48.806;9.140;2023-07-20T01:08:53;4.10;;;1.97;;
4636;SDS011;2331;48.806;9.140;2023-07-20T01:11:31;3.73;;;1.93;;
4636;SDS011;2331;48.806;9.140;2023-07-20T01:14:03;4.73;;;2.00;;
4636;SDS011;2331;48.806;9.140;2023-07-20T01:16:32;3.80;;;1.90;;
4636;SDS011;2331;48.806;9.140;2023-07-20T01:18:59;3.80;;;2.17;;
4636;SDS011;2331;48.806;9.140;2023-07-20T01:21:28;4.30;;;1.90;;
4636;SDS011;2331;48.806;9.140;2023-07-20T01:24:18;11.50;;;2.20;;
4636;SDS011;2331;48.806;9.140;2023-07-20T01:30:28;3.90;;;2.00;;
4636;SDS011;2331;48.806;9.140;2023-07-20T01:33:13;6.43;;;2.37;;
4636;SDS011;2331;48.806;9.140;2023-07-20T01:35:42;4.33;;;2.00;;
4636;SDS011;2331;48.806;9.140;2023-07-20T01:38:11;5.43;;;2.37;;
4636;SDS011;2331;48.806;9.140;2023-07-20T01:40:39;6.50;;;2.10;;
4636;SDS011;2331;48.806;9.140;2023-07-20T01:43:07;4.90;;;2.30;;
4636;SDS011;2331;48.806;9.140;2023-07-20T01:45:34;3.47;;;1.90;;
4636;SDS011;2331;48.806;9.140;2023-07-20T01:48:00;4.70;;;1.97;;
4636;SDS011;2331;48.806;9.140;2023-07-20T01:50:29;4.20;;;2.07;;
4636;SDS011;2331;48.806;9.140;2023-07-20T01:52:56;4.90;;;2.00;;
4636;SDS011;2331;48.806;9.140;2023-07-20T01:55:23;8.60;;;2.43;;
4636;SDS011;2331;48.806;9.140;2023-07-20T01:57:50;3.77;;;2.00;;
4636;SDS011;2331;48.806;9.140;2023-07-20T02:00:17;4.03;;;2.23;;
4636;SDS011;2331;48.806;9.140;2023-07-20T02:02:46;7.67;;;2.43;;
4636;SDS011;2331;48.806;9.140;2023-07-20T02:05:13;3.83;;;2.00;;
4636;SDS011;2331;48.806;9.140;2023-07-20T02:07:41;4.70;;;2.10;;
4636;SDS011;2331;48.806;9.140;2023-07-20T02:10:08;4.40;;;2.03;;
4636;SDS011;2331;48.806;9.140;2023-07-20T02:12:35;5.40;;;2.50;;
4636;SDS011;2331;48.806;9.140;2023-07-20T02:15:02;7.30;;;2.33;;
4636;SDS011;2331;48.806;9.140;2023-07-20T02:17:29;5.60;;;2.30;;
4636;SDS011;2331;48.806;9.140;2023-07-20T02:19:56;4.90;;;2.20;;
4636;SDS011;2331;48.806;9.140;2023-07-20T02:22:23;4.90;;;1.83;;
4636;SDS011;2331;48.806;9.140;2023-07-20T02:24:51;6.50;;;2.13;;
4636;SDS011;2331;48.806;9.140;2023-07-20T02:27:18;3.70;;;2.30;;
4636;SDS011;2331;48.806;9.140;2023-07-20T02:29:45;6.30;;;2.77;;
4636;SDS011;2331;48.806;9.140;2023-07-20T02:32:11;5.03;;;2.40;;
4636;SDS011;2331;48.806;9.140;2023-07-20T02:34:39;3.77;;;2.07;;
4636;SDS011;2331;48.806;9.140;2023-07-20T02:37:05;4.60;;;2.40;;
4636;SDS011;2331;48.806;9.140;2023-07-20T02:39:32;3.23;;;1.87;;
4636;SDS011;2331;48.806;9.140;2023-07-20T02:41:59;5.20;;;2.40;;
4636;SDS011;2331;48.806;9.140;2023-07-20T02:44:26;4.73;;;2.63;;
4636;SDS011;2331;48.806;9.140;2023-07-20T02:46:53;4.40;;;2.50;;
4636;SDS011;2331;48.806;9.140;2023-07-20T02:49:19;4.73;;;2.77;;
4636;SDS011;2331;48.806;9.140;2023-07-20T02:51:46;3.97;;;2.50;;
4636;SDS011;2331;48.806;9.140;2023-07-20T02:54:13;9.00;;;2.60;;
4636;SDS011;2331;48.806;9.140;2023-07-20T02:56:40;5.20;;;2.37;;
4636;SDS011;2331;48.806;9.140;2023-07-20T02:59:08;3.07;;;1.90;;
4636;SDS011;2331;48.806;9.140;2023-07-20T03:01:35;5.93;;;2.53;;
4636;SDS011;2331;48.806;9.140;2023-07-20T03:04:02;5.13;;;2.03;;
4636;SDS011;2331;48.806;9.140;2023-07-20T03:06:29;3.30;;;2.30;;
4636;SDS011;2331;48.806;9.140;2023-07-20T03:08:56;3.90;;;2.30;;
4636;SDS011;2331;48.806;9.140;2023-07-20T03:11:23;5.90;;;2.63;;
4636;SDS011;2331;48.806;9.140;2023-07-20T03:13:50;2.87;;;1.90;;
4636;SDS011;2331;48.806;9.140;2023-07-20T03:16:19;4.03;;;2.40;;
4636;SDS011;2331;48.806;9.140;2023-07-20T03:18:45;3.53;;;1.80;;
4636;SDS011;2331;48.806;9.140;2023-07-20T03:21:12;4.00;;;2.10;;
4636;SDS011;2331;48.806;9.140;2023-07-20T03:23:40;5.97;;;2.50;;
4636;SDS011;2331;48.806;9.140;2023-07-20T03:26:07;6.27;;;2.13;;
4636;SDS011;2331;48.806;9.140;2023-07-20T03:28:34;6.13;;;2.30;;
4636;SDS011;2331;48.806;9.140;2023-07-20T03:31:01;4.20;;;2.30;;
4636;SDS011;2331;48.806;9.140;2023-07-20T03:33:29;5.80;;;2.43;;
4636;SDS011;2331;48.806;9.140;2023-07-20T03:35:57;3.23;;;2.10;;
4636;SDS011;2331;48.806;9.140;2023-07-20T03:38:24;5.67;;;2.30;;
4636;SDS011;2331;48.806;9.140;2023-07-20T03:40:51;3.17;;;1.80;;
4636;SDS011;2331;48.806;9.140;2023-07-20T03:43:19;4.30;;;2.17;;
4636;SDS011;2331;48.806;9.140;2023-07-20T03:45:45;3.60;;;2.20;;
4636;SDS011;2331;48.806;9.140;2023-07-20T03:48:13;6.53;;;2.33;;
4636;SDS011;2331;48.806;9.140;2023-07-20T03:50:43;4.37;;;2.60;;
4636;SDS011;2331;48.806;9.140;2023-07-20T03:53:10;3.10;;;1.80;;
4636;SDS011;2331;48.806;9.140;2023-07-20T03:55:37;8.00;;;2.67;;
4636;SDS011;2331;48.806;9.140;2023-07-20T03:58:05;4.67;;;2.30;;
4636;SDS011;2331;48.806;9.140;2023-07-20T04:00:32;4.47;;;1.93;;
4636;SDS011;2331;48.806;9.140;2023-07-20T04:02:59;4.37;;;2.43;;
4636;SDS011;2331;48.806;9.140;2023-07-20T04:05:25;4.10;;;2.47;;
4636;SDS011;2331;48.806;9.140;2023-07-20T04:07:54;4.13;;;2.00;;
4636;SDS011;2331;48.806;9.140;2023-07-20T04:10:21;4.50;;;2.53;;
4636;SDS011;2331;48.806;9.140;2023-07-20T04:12:47;3.93;;;2.20;;
4636;SDS011;2331;48.806;9.140;2023-07-20T04:15:14;6.10;;;2.30;;
4636;SDS011;2331;48.806;9.140;2023-07-20T04:17:41;3.23;;;2.03;;
4636;SDS011;2331;48.806;9.140;2023-07-20T04:20:08;6.53;;;2.30;;
4636;SDS011;2331;48.806;9.140;2023-07-20T04:22:35;3.17;;;2.10;;
4636;SDS011;2331;48.806;9.140;2023-07-20T04:25:04;4.33;;;2.10;;
4636;SDS011;2331;48.806;9.140;2023-07-20T04:27:30;6.80;;;2.47;;
4636;SDS011;2331;48.806;9.140;2023-07-20T04:29:57;3.23;;;2.10;;
4636;SDS011;2331;48.806;9.140;2023-07-20T04:32:25;6.97;;;2.37;;
4636;SDS011;2331;48.806;9.140;2023-07-20T04:34:52;3.27;;;1.87;;
4636;SDS011;2331;48.806;9.140;2023-07-20T04:37:18;4.40;;;2.20;;
4636;SDS011;2331;48.806;9.140;2023-07-20T04:39:45;4.20;;;2.57;;
4636;SDS011;2331;48.806;9.140;2023-07-20T04:42:13;5.20;;;2.20;;
4636;SDS011;2331;48.806;9.140;2023-07-20T04:44:40;8.63;;;2.60;;
4636;SDS011;2331;48.806;9.140;2023-07-20T04:47:07;4.60;;;2.30;;
4636;SDS011;2331;48.806;9.140;2023-07-20T04:49:34;5.87;;;2.50;;
4636;SDS011;2331;48.806;9.140;2023-07-20T04:52:01;3.70;;;2.33;;
4636;SDS011;2331;48.806;9.140;2023-07-20T04:54:28;3.70;;;2.27;;
4636;SDS011;2331;48.806;9.140;2023-07-20T04:56:55;5.30;;;2.37;;
4636;SDS011;2331;48.806;9.140;2023-07-20T04:59:23;3.60;;;2.23;;
4636;SDS011;2331;48.806;9.140;2023-07-20T05:01:50;4.47;;;2.53;;
4636;SDS011;2331;48.806;9.140;2023-07-20T05:04:17;4.23;;;2.20;;
4636;SDS011;2331;48.806;9.140;2023-07-20T05:06:44;4.50;;;2.30;;
4636;SDS011;2331;48.806;9.140;2023-07-20T05:09:11;4.50;;;2.43;;
4636;SDS011;2331;48.806;9.140;2023-07-20T05:11:38;3.47;;;1.97;;
4636;SDS011;2331;48.806;9.140;2023-07-20T05:14:05;3.07;;;1.90;;
4636;SDS011;2331;48.806;9.140;2023-07-20T05:16:33;3.60;;;1.90;;
4636;SDS011;2331;48.806;9.140;2023-07-20T05:18:59;4.97;;;2.20;;
4636;SDS011;2331;48.806;9.140;2023-07-20T05:21:26;6.43;;;2.40;;
4636;SDS011;2331;48.806;9.140;2023-07-20T05:23:53;5.40;;;2.50;;
4636;SDS011;2331;48.806;9.140;2023-07-20T05:26:19;3.40;;;2.20;;
4636;SDS011;2331;48.806;9.140;2023-07-20T05:28:46;6.33;;;2.10;;
4636;SDS011;2331;48.806;9.140;2023-07-20T05:31:13;4.03;;;2.00;;
4636;SDS011;2331;48.806;9.140;2023-07-20T05:33:41;4.67;;;2.80;;
4636;SDS011;2331;48.806;9.140;2023-07-20T05:36:08;7.53;;;2.83;;
4636;SDS011;2331;48.806;9.140;2023-07-20T05:38:34;6.30;;;2.30;;
4636;SDS011;2331;48.806;9.140;2023-07-20T05:41:01;5.20;;;1.90;;
4636;SDS011;2331;48.806;9.140;2023-07-20T05:43:29;4.10;;;2.27;;
4636;SDS011;2331;48.806;9.140;2023-07-20T05:45:56;5.80;;;2.67;;
4636;SDS011;2331;48.806;9.140;2023-07-20T05:48:23;3.50;;;2.10;;
4636;SDS011;2331;48.806;9.140;2023-07-20T05:50:51;3.80;;;2.13;;
4636;SDS011;2331;48.806;9.140;2023-07-20T05:53:18;5.07;;;1.97;;
4636;SDS011;2331;48.806;9.140;2023-07-20T05:55:51;4.07;;;2.10;;
4636;SDS011;2331;48.806;9.140;2023-07-20T05:58:18;3.10;;;1.90;;
4636;SDS011;2331;48.806;9.140;2023-07-20T06:00:47;4.73;;;2.27;;
4636;SDS011;2331;48.806;9.140;2023-07-20T06:03:14;4.27;;;2.00;;
4636;SDS011;2331;48.806;9.140;2023-07-20T06:05:41;3.80;;;2.00;;
4636;SDS011;2331;48.806;9.140;2023-07-20T06:08:09;6.77;;;2.50;;
4636;SDS011;2331;48.806;9.140;2023-07-20T06:10:36;4.50;;;1.90;;
4636;SDS011;2331;48.806;9.140;2023-07-20T06:13:03;4.33;;;2.50;;
4636;SDS011;2331;48.806;9.140;2023-07-20T06:15:31;4.83;;;2.00;;
4636;SDS011;2331;48.806;9.140;2023-07-20T06:18:00;4.40;;;2.00;;
4636;SDS011;2331;48.806;9.140;2023-07-20T06:20:28;6.53;;;2.43;;
4636;SDS011;2331;48.806;9.140;2023-07-20T06:22:55;7.03;;;2.20;;
4636;SDS011;2331;48.806;9.140;2023-07-20T06:25:23;4.53;;;2.20;;
4636;SDS011;2331;48.806;9.140;2023-07-20T06:27:50;6.40;;;2.60;;
4636;SDS011;2331;48.806;9.140;2023-07-20T06:30:17;4.70;;;2.20;;
4636;SDS011;2331;48.806;9.140;2023-07-20T06:32:44;7.50;;;2.50;;
4636;SDS011;2331;48.806;9.140;2023-07-20T06:35:11;4.33;;;2.60;;
4636;SDS011;2331;48.806;9.140;2023-07-20T06:37:38;3.47;;;2.00;;
4636;SDS011;2331;48.806;9.140;2023-07-20T06:40:05;5.77;;;2.27;;
4636;SDS011;2331;48.806;9.140;2023-07-20T06:42:35;4.07;;;2.07;;
4636;SDS011;2331;48.806;9.140;2023-07-20T06:45:02;4.97;;;2.20;;
4636;SDS011;2331;48.806;9.140;2023-07-20T06:47:29;7.07;;;2.23;;
4636;SDS011;2331;48.806;9.140;2023-07-20T06:49:56;5.53;;;2.20;;
4636;SDS011;2331;48.806;9.140;2023-07-20T06:52:22;5.10;;;2.30;;
4636;SDS011;2331;48.806;9.140;2023-07-20T06:54:49;4.07;;;2.20;;
4636;SDS011;2331;48.806;9.140;2023-07-20T06:57:16;4.60;;;2.23;;
4636;SDS011;2331;48.806;9.140;2023-07-20T06:59:44;4.90;;;2.00;;
4636;SDS011;2331;48.806;9.140;2023-07-20T07:02:11;4.30;;;2.17;;
4636;SDS011;2331;48.806;9.140;2023-07-20T07:04:38;6.43;;;2.63;;
4636;SDS011;2331;48.806;9.140;2023-07-20T07:07:05;6.47;;;2.07;;
4636;SDS011;2331;48.806;9.140;2023-07-20T07:09:31;5.53;;;2.33;;
4636;SDS011;2331;48.806;9.140;2023-07-20T07:11:58;4.57;;;2.10;;
4636;SDS011;2331;48.806;9.140;2023-07-20T07:14:25;4.63;;;2.00;;
4636;SDS011;2331;48.806;9.140;2023-07-20T07:16:53;4.60;;;2.10;;
4636;SDS011;2331;48.806;9.140;2023-07-20T07:19:20;5.43;;;2.20;;
4636;SDS011;2331;48.806;9.140;2023-07-20T07:21:47;5.03;;;2.20;;
4636;SDS011;2331;48.806;9.140;2023-07-20T07:24:13;3.60;;;2.40;;
4636;SDS011;2331;48.806;9.140;2023-07-20T07:26:40;5.60;;;2.20;;
4636;SDS011;2331;48.806;9.140;2023-07-20T07:29:07;7.77;;;2.20;;
4636;SDS011;2331;48.806;9.140;2023-07-20T07:31:34;4.77;;;2.20;;
4636;SDS011;2331;48.806;9.140;2023-07-20T07:34:02;4.40;;;2.40;;
4636;SDS011;2331;48.806;9.140;2023-07-20T07:36:29;5.53;;;2.33;;
4636;SDS011;2331;48.806;9.140;2023-07-20T07:38:56;4.70;;;2.17;;
4636;SDS011;2331;48.806;9.140;2023-07-20T07:41:23;5.47;;;2.40;;
4636;SDS011;2331;48.806;9.140;2023-07-20T07:43:50;6.57;;;2.70;;
4636;SDS011;2331;48.806;9.140;2023-07-20T07:46:16;3.87;;;2.10;;
4636;SDS011;2331;48.806;9.140;2023-07-20T07:48:43;4.77;;;2.20;;
4636;SDS011;2331;48.806;9.140;2023-07-20T07:51:11;3.87;;;1.93;;
4636;SDS011;2331;48.806;9.140;2023-07-20T07:53:39;4.20;;;2.13;;
4636;SDS011;2331;48.806;9.140;2023-07-20T07:56:06;5.23;;;2.20;;
4636;SDS011;2331;48.806;9.140;2023-07-20T07:58:33;4.97;;;1.80;;
4636;SDS011;2331;48.806;9.140;2023-07-20T08:01:00;5.20;;;2.53;;
4636;SDS011;2331;48.806;9.140;2023-07-20T08:03:27;4.53;;;2.43;;
4636;SDS011;2331;48.806;9.140;2023-07-20T08:05:54;6.13;;;2.30;;
4636;SDS011;2331;48.806;9.140;2023-07-20T08:08:22;7.03;;;2.93;;
4636;SDS011;2331;48.806;9.140;2023-07-20T08:10:50;5.50;;;2.50;;
4636;SDS011;2331;48.806;9.140;2023-07-20T08:13:19;4.80;;;2.33;;
4636;SDS011;2331;48.806;9.140;2023-07-20T08:15:49;15.00;;;3.00;;
4636;SDS011;2331;48.806;9.140;2023-07-20T08:18:17;4.53;;;2.30;;
4636;SDS011;2331;48.806;9.140;2023-07-20T08:20:44;5.13;;;2.43;;
4636;SDS011;2331;48.806;9.140;2023-07-20T08:23:11;7.23;;;2.27;;
4636;SDS011;2331;48.806;9.140;2023-07-20T08:25:39;5.37;;;2.67;;
4636;SDS011;2331;48.806;9.140;2023-07-20T08:28:08;5.43;;;2.13;;
4636;SDS011;2331;48.806;9.140;2023-07-20T08:30:39;4.77;;;2.23;;
4636;SDS011;2331;48.806;9.140;2023-07-20T08:33:09;6.40;;;2.30;;
4636;SDS011;2331;48.806;9.140;2023-07-20T08:35:36;5.93;;;2.40;;
4636;SDS011;2331;48.806;9.140;2023-07-20T08:38:03;5.80;;;2.60;;
4636;SDS011;2331;48.806;9.140;2023-07-20T08:40:30;5.80;;;2.53;;
4636;SDS011;2331;48.806;9.140;2023-07-20T08:42:59;5.13;;;2.27;;
4636;SDS011;2331;48.806;9.140;2023-07-20T08:45:27;4.27;;;2.50;;
4636;SDS011;2331;48.806;9.140;2023-07-20T08:47:55;7.60;;;2.60;;
4636;SDS011;2331;48.806;9.140;2023-07-20T08:50:24;8.93;;;2.60;;
4636;SDS011;2331;48.806;9.140;2023-07-20T08:52:52;6.07;;;2.80;;
4636;SDS011;2331;48.806;9.140;2023-07-20T08:55:19;4.20;;;2.40;;
4636;SDS011;2331;48.806;9.140;2023-07-20T08:57:47;5.20;;;1.70;;
4636;SDS011;2331;48.806;9.140;2023-07-20T09:00:19;3.30;;;2.10;;
4636;SDS011;2331;48.806;9.140;2023-07-20T09:02:48;3.80;;;2.30;;
4636;SDS011;2331;48.806;9.140;2023-07-20T09:05:16;4.20;;;1.73;;
4636;SDS011;2331;48.806;9.140;2023-07-20T09:07:43;4.37;;;2.20;;
4636;SDS011;2331;48.806;9.140;2023-07-20T09:10:10;3.77;;;2.10;;
4636;SDS011;2331;48.806;9.140;2023-07-20T09:12:37;4.33;;;1.90;;
4636;SDS011;2331;48.806;9.140;2023-07-20T09:15:06;3.43;;;1.50;;
4636;SDS011;2331;48.806;9.140;2023-07-20T09:17:34;4.77;;;2.03;;
4636;SDS011;2331;48.806;9.140;2023-07-20T09:20:03;3.90;;;2.20;;
4636;SDS011;2331;48.806;9.140;2023-07-20T09:22:33;3.97;;;2.50;;
4636;SDS011;2331;48.806;9.140;2023-07-20T09:25:00;4.20;;;2.50;;
4636;SDS011;2331;48.806;9.140;2023-07-20T09:27:34;3.80;;;2.10;;
4636;SDS011;2331;48.806;9.140;2023-07-20T09:30:03;6.27;;;2.20;;
4636;SDS011;2331;48.806;9.140;2023-07-20T09:32:32;5.73;;;2.03;;
4636;SDS011;2331;48.806;9.140;2023-07-20T09:35:12;5.77;;;1.90;;
4636;SDS011;2331;48.806;9.140;2023-07-20T09:37:42;4.37;;;2.07;;
4636;SDS011;2331;48.806;9.140;2023-07-20T09:40:14;5.30;;;2.27;;
4636;SDS011;2331;48.806;9.140;2023-07-20T09:42:41;7.00;;;2.13;;
4636;SDS011;2331;48.806;9.140;2023-07-20T09:45:09;4.17;;;2.13;;
4636;SDS011;2331;48.806;9.140;2023-07-20T09:47:36;5.43;;;2.60;;
4636;SDS011;2331;48.806;9.140;2023-07-20T09:50:05;3.90;;;1.87;;
4636;SDS011;2331;48.806;9.140;2023-07-20T09:52:35;4.33;;;2.17;;
4636;SDS011;2331;48.806;9.140;2023-07-20T09:55:06;4.30;;;1.83;;
4636;SDS011;2331;48.806;9.140;2023-07-20T09:57:34;3.23;;;1.50;;
4636;SDS011;2331;48.806;9.140;2023-07-20T10:00:02;2.33;;;1.47;;
4636;SDS011;2331;48.806;9.140;2023-07-20T10:02:33;3.83;;;2.00;;
4636;SDS011;2331;48.806;9.140;2023-07-20T10:05:08;3.03;;;1.70;;
4636;SDS011;2331;48.806;9.140;2023-07-20T10:07:40;4.00;;;1.97;;
4636;SDS011;2331;48.806;9.140;2023-07-20T10:10:11;4.20;;;1.80;;
4636;SDS011;2331;48.806;9.140;2023-07-20T10:12:40;3.37;;;1.70;;
4636;SDS011;2331;48.806;9.140;2023-07-20T10:15:11;3.70;;;1.63;;
4636;SDS011;2331;48.806;9.140;2023-07-20T10:17:41;5.60;;;1.70;;
4636;SDS011;2331;48.806;9.140;2023-07-20T10:20:16;2.40;;;1.20;;
4636;SDS011;2331;48.806;9.140;2023-07-20T10:22:46;4.50;;;1.67;;
4636;SDS011;2331;48.806;9.140;2023-07-20T10:25:15;3.20;;;1.53;;
4636;SDS011;2331;48.806;9.140;2023-07-20T10:27:43;2.73;;;1.57;;
4636;SDS011;2331;48.806;9.140;2023-07-20T10:30:11;4.03;;;1.60;;
4636;SDS011;2331;48.806;9.140;2023-07-20T10:32:39;3.70;;;1.73;;
4636;SDS011;2331;48.806;9.140;2023-07-20T10:35:11;6.13;;;1.60;;
4636;SDS011;2331;48.806;9.140;2023-07-20T10:37:47;2.83;;;1.40;;
4636;SDS011;2331;48.806;9.140;2023-07-20T10:40:28;6.40;;;1.80;;
4636;SDS011;2331;48.806;9.140;2023-07-20T10:43:00;4.30;;;1.50;;
4636;SDS011;2331;48.806;9.140;2023-07-20T10:45:34;3.00;;;1.40;;
4636;SDS011;2331;48.806;9.140;2023-07-20T10:48:15;2.90;;;1.40;;
4636;SDS011;2331;48.806;9.140;2023-07-20T10:50:44;6.07;;;1.87;;
4636;SDS011;2331;48.806;9.140;2023-07-20T10:53:14;3.20;;;1.60;;
4636;SDS011;2331;48.806;9.140;2023-07-20T10:55:41;3.53;;;1.60;;
4636;SDS011;2331;48.806;9.140;2023-07-20T10:58:10;4.90;;;1.77;;
4636;SDS011;2331;48.806;9.140;2023-07-20T11:00:54;5.47;;;1.70;;
4636;SDS011;2331;48.806;9.140;2023-07-20T11:03:29;4.27;;;1.90;;
4636;SDS011;2331;48.806;9.140;2023-07-20T11:05:57;2.57;;;1.10;;
4636;SDS011;2331;48.806;9.140;2023-07-20T11:08:41;7.03;;;2.23;;
4636;SDS011;2331;48.806;9.140;2023-07-20T11:11:21;5.70;;;1.50;;
4636;SDS011;2331;48.806;9.140;2023-07-20T11:13:54;3.17;;;1.63;;
4636;SDS011;2331;48.806;9.140;2023-07-20T11:16:36;2.90;;;1.60;;
4636;SDS011;2331;48.806;9.140;2023-07-20T11:19:04;2.63;;;1.30;;
4636;SDS011;2331;48.806;9.140;2023-07-20T11:21:36;3.20;;;1.30;;
4636;SDS011;2331;48.806;9.140;2023-07-20T11:24:05;3.50;;;1.50;;
4636;SDS011;2331;48.806;9.140;2023-07-20T11:26:40;3.00;;;1.40;;
4636;SDS011;2331;48.806;9.140;2023-07-20T11:29:11;3.57;;;1.47;;
4636;SDS011;2331;48.806;9.140;2023-07-20T11:31:38;2.20;;;1.10;;
4636;SDS011;2331;48.806;9.140;2023-07-20T11:34:07;2.37;;;1.30;;
4636;SDS011;2331;48.806;9.140;2023-07-20T11:36:36;3.20;;;1.73;;
4636;SDS011;2331;48.806;9.140;2023-07-20T11:39:03;2.60;;;1.53;;
4636;SDS011;2331;48.806;9.140;2023-07-20T11:41:34;3.30;;;1.37;;
4636;SDS011;2331;48.806;9.140;2023-07-20T11:44:00;2.57;;;1.17;;
4636;SDS011;2331;48.806;9.140;2023-07-20T11:46:28;3.10;;;1.70;;
4636;SDS011;2331;48.806;9.140;2023-07-20T11:48:56;3.40;;;1.37;;
4636;SDS011;2331;48.806;9.140;2023-07-20T11:51:24;4.43;;;1.50;;
4636;SDS011;2331;48.806;9.140;2023-07-20T11:53:52;3.63;;;1.67;;
4636;SDS011;2331;48.806;9.140;2023-07-20T11:56:19;3.43;;;1.37;;
4636;SDS011;2331;48.806;9.140;2023-07-20T11:58:47;2.80;;;1.30;;
4636;SDS011;2331;48.806;9.140;2023-07-20T12:01:14;4.10;;;1.47;;
4636;SDS011;2331;48.806;9.140;2023-07-20T12:03:41;3.63;;;1.60;;
4636;SDS011;2331;48.806;9.140;2023-07-20T12:06:09;2.50;;;1.20;;
4636;SDS011;2331;48.806;9.140;2023-07-20T12:08:39;4.97;;;1.53;;
4636;SDS011;2331;48.806;9.140;2023-07-20T12:11:08;3.50;;;1.67;;
4636;SDS011;2331;48.806;9.140;2023-07-20T12:13:35;3.00;;;1.37;;
4636;SDS011;2331;48.806;9.140;2023-07-20T12:16:08;3.97;;;1.40;;
4636;SDS011;2331;48.806;9.140;2023-07-20T12:18:36;3.17;;;1.50;;
4636;SDS011;2331;48.806;9.140;2023-07-20T12:21:03;2.90;;;1.50;;
4636;SDS011;2331;48.806;9.140;2023-07-20T12:23:36;3.87;;;1.40;;
4636;SDS011;2331;48.806;9.140;2023-07-20T12:26:05;2.90;;;1.40;;
4636;SDS011;2331;48.806;9.140;2023-07-20T12:28:35;4.67;;;1.60;;
4636;SDS011;2331;48.806;9.140;2023-07-20T12:31:04;3.30;;;1.83;;
4636;SDS011;2331;48.806;9.140;2023-07-20T12:33:33;3.37;;;1.40;;
4636;SDS011;2331;48.806;9.140;2023-07-20T12:35:59;3.60;;;1.60;;
4636;SDS011;2331;48.806;9.140;2023-07-20T12:38:27;3.03;;;1.33;;
4636;SDS011;2331;48.806;9.140;2023-07-20T12:40:53;3.70;;;1.27;;
4636;SDS011;2331;48.806;9.140;2023-07-20T12:43:21;3.97;;;1.53;;
4636;SDS011;2331;48.806;9.140;2023-07-20T12:45:47;3.27;;;1.33;;
4636;SDS011;2331;48.806;9.140;2023-07-20T12:48:14;2.37;;;1.30;;
4636;SDS011;2331;48.806;9.140;2023-07-20T12:50:42;3.90;;;1.30;;
4636;SDS011;2331;48.806;9.140;2023-07-20T12:53:09;3.63;;;1.70;;
4636;SDS011;2331;48.806;9.140;2023-07-20T12:55:37;3.63;;;1.30;;
4636;SDS011;2331;48.806;9.140;2023-07-20T12:58:05;4.73;;;1.63;;
4636;SDS011;2331;48.806;9.140;2023-07-20T13:00:32;2.40;;;1.30;;
4636;SDS011;2331;48.806;9.140;2023-07-20T13:02:59;4.63;;;2.17;;
4636;SDS011;2331;48.806;9.140;2023-07-20T13:05:29;3.80;;;1.50;;
4636;SDS011;2331;48.806;9.140;2023-07-20T13:07:58;3.37;;;1.40;;
4636;SDS011;2331;48.806;9.140;2023-07-20T13:10:25;2.80;;;1.60;;
4636;SDS011;2331;48.806;9.140;2023-07-20T13:12:52;4.40;;;1.40;;
4636;SDS011;2331;48.806;9.140;2023-07-20T13:15:19;2.13;;;1.10;;
4636;SDS011;2331;48.806;9.140;2023-07-20T13:17:46;4.10;;;1.50;;
4636;SDS011;2331;48.806;9.140;2023-07-20T13:20:13;3.23;;;1.40;;
4636;SDS011;2331;48.806;9.140;2023-07-20T13:22:39;4.40;;;1.70;;
4636;SDS011;2331;48.806;9.140;2023-07-20T13:25:08;2.20;;;1.10;;
4636;SDS011;2331;48.806;9.140;2023-07-20T13:27:35;2.83;;;1.20;;
4636;SDS011;2331;48.806;9.140;2023-07-20T13:30:03;4.63;;;1.60;;
4636;SDS011;2331;48.806;9.140;2023-07-20T13:32:31;3.07;;;1.20;;
4636;SDS011;2331;48.806;9.140;2023-07-20T13:34:58;3.20;;;1.50;;
4636;SDS011;2331;48.806;9.140;2023-07-20T13:37:25;3.03;;;1.33;;
4636;SDS011;2331;48.806;9.140;2023-07-20T13:39:53;2.90;;;1.30;;
4636;SDS011;2331;48.806;9.140;2023-07-20T13:42:21;5.50;;;1.80;;
4636;SDS011;2331;48.806;9.140;2023-07-20T13:44:48;4.60;;;2.07;;
4636;SDS011;2331;48.806;9.140;2023-07-20T13:47:15;4.60;;;1.40;;
4636;SDS011;2331;48.806;9.140;2023-07-20T13:49:43;2.87;;;1.27;;
4636;SDS011;2331;48.806;9.140;2023-07-20T13:52:10;3.27;;;1.50;;
4636;SDS011;2331;48.806;9.140;2023-07-20T13:54:36;4.10;;;1.33;;
4636;SDS011;2331;48.806;9.140;2023-07-20T13:57:03;3.10;;;1.60;;
4636;SDS011;2331;48.806;9.140;2023-07-20T13:59:32;6.83;;;1.90;;
4636;SDS011;2331;48.806;9.140;2023-07-20T14:01:59;3.93;;;1.57;;
4636;SDS011;2331;48.806;9.140;2023-07-20T14:04:26;2.70;;;1.33;;
4636;SDS011;2331;48.806;9.140;2023-07-20T14:06:53;3.87;;;1.63;;
4636;SDS011;2331;48.806;9.140;2023-07-20T14:09:22;5.20;;;1.17;;
4636;SDS011;2331;48.806;9.140;2023-07-20T14:11:49;3.40;;;1.43;;
4636;SDS011;2331;48.806;9.140;2023-07-20T14:14:16;3.10;;;1.00;;
4636;SDS011;2331;48.806;9.140;2023-07-20T14:16:44;3.10;;;1.33;;
4636;SDS011;2331;48.806;9.140;2023-07-20T14:19:11;2.83;;;1.20;;
4636;SDS011;2331;48.806;9.140;2023-07-20T14:21:38;3.70;;;1.40;;
4636;SDS011;2331;48.806;9.140;2023-07-20T14:24:05;8.63;;;1.47;;
4636;SDS011;2331;48.806;9.140;2023-07-20T14:26:32;3.30;;;1.53;;
4636;SDS011;2331;48.806;9.140;2023-07-20T14:29:00;3.50;;;1.43;;
4636;SDS011;2331;48.806;9.140;2023-07-20T14:31:27;2.50;;;1.20;;
4636;SDS011;2331;48.806;9.140;2023-07-20T14:33:55;3.03;;;1.10;;
4636;SDS011;2331;48.806;9.140;2023-07-20T14:36:22;3.27;;;1.40;;
4636;SDS011;2331;48.806;9.140;2023-07-20T14:38:48;5.20;;;1.20;;
4636;SDS011;2331;48.806;9.140;2023-07-20T14:41:15;3.40;;;1.13;;
4636;SDS011;2331;48.806;9.140;2023-07-20T14:43:42;3.00;;;1.20;;
4636;SDS011;2331;48.806;9.140;2023-07-20T14:46:09;2.10;;;1.13;;
4636;SDS011;2331;48.806;9.140;2023-07-20T14:48:35;2.50;;;1.30;;
4636;SDS011;2331;48.806;9.140;2023-07-20T14:51:04;2.77;;;1.37;;
4636;SDS011;2331;48.806;9.140;2023-07-20T14:53:30;2.70;;;1.10;;
4636;SDS011;2331;48.806;9.140;2023-07-20T14:56:00;2.30;;;1.10;;
4636;SDS011;2331;48.806;9.140;2023-07-20T14:58:27;2.93;;;1.37;;
4636;SDS011;2331;48.806;9.140;2023-07-20T15:00:55;4.20;;;1.57;;
4636;SDS011;2331;48.806;9.140;2023-07-20T15:03:22;3.20;;;1.30;;
4636;SDS011;2331;48.806;9.140;2023-07-20T15:05:49;3.10;;;1.37;;
4636;SDS011;2331;48.806;9.140;2023-07-20T15:08:17;2.80;;;1.40;;
4636;SDS011;2331;48.806;9.140;2023-07-20T15:10:45;3.10;;;1.50;;
4636;SDS011;2331;48.806;9.140;2023-07-20T15:13:12;2.07;;;1.07;;
4636;SDS011;2331;48.806;9.140;2023-07-20T15:15:38;4.47;;;1.27;;
4636;SDS011;2331;48.806;9.140;2023-07-20T15:18:05;3.73;;;1.10;;
4636;SDS011;2331;48.806;9.140;2023-07-20T15:20:32;3.60;;;1.30;;
4636;SDS011;2331;48.806;9.140;2023-07-20T15:22:59;3.90;;;1.23;;
4636;SDS011;2331;48.806;9.140;2023-07-20T15:25:28;2.93;;;1.27;;